PTDAV SBTT-SWEI
Flight info
| Callsign | PTDAV |
|---|---|
| Flight time | N/A |
| Altitude | 10000 |
| Route | TBT188100 |
| Aircraft | BE58/L-SDFGRY/C |
Departure
| Time | 2026-04-26 14:12 |
|---|---|
| Airport | Tabatinga International Airport (SBTT) |
Arrival
| Time | N/A |
|---|---|
| Airport | Eirunepé Airport (SWEI) |
| Time | Latitude | Longitude | Altitude | Speed | Heading |
|---|---|---|---|---|---|
| 2026-04-26 13:52 | -4.25156 | -69.94009 | 264 ft | 0 kts | 164° |
| 2026-04-26 14:08 | -4.25159 | -69.94003 | 264 ft | 2 kts | 72° |
| 2026-04-26 14:08 | -4.25144 | -69.93980 | 264 ft | 5 kts | 69° |
| 2026-04-26 14:08 | -4.25158 | -69.93936 | 264 ft | 7 kts | 114° |
| 2026-04-26 14:08 | -4.25196 | -69.93917 | 264 ft | 8 kts | 206° |
| 2026-04-26 14:09 | -4.25259 | -69.93947 | 264 ft | 11 kts | 204° |
| 2026-04-26 14:09 | -4.25333 | -69.93980 | 264 ft | 12 kts | 202° |
| 2026-04-26 14:09 | -4.25356 | -69.94053 | 264 ft | 13 kts | 297° |
| 2026-04-26 14:09 | -4.25313 | -69.94146 | 264 ft | 15 kts | 294° |
| 2026-04-26 14:10 | -4.25268 | -69.94250 | 263 ft | 16 kts | 293° |
| 2026-04-26 14:10 | -4.25220 | -69.94355 | 263 ft | 14 kts | 297° |
| 2026-04-26 14:10 | -4.25201 | -69.94421 | 263 ft | 7 kts | 288° |
| 2026-04-26 14:10 | -4.25183 | -69.94437 | 263 ft | 4 kts | 72° |
| 2026-04-26 14:11 | -4.25190 | -69.94414 | 263 ft | 0 kts | 115° |
| 2026-04-26 14:11 | -4.25319 | -69.94139 | 264 ft | 80 kts | 115° |
| 2026-04-26 14:12 | -4.25594 | -69.93587 | 511 ft | 88 kts | 117° |
| 2026-04-26 14:12 | -4.25895 | -69.93012 | 800 ft | 95 kts | 117° |
| 2026-04-26 14:12 | -4.26212 | -69.92372 | 956 ft | 110 kts | 113° |
| 2026-04-26 14:12 | -4.26498 | -69.91653 | 1269 ft | 108 kts | 109° |
| 2026-04-26 14:13 | -4.27105 | -69.90334 | 1849 ft | 107 kts | 113° |
| 2026-04-26 14:13 | -4.27439 | -69.89661 | 2112 ft | 109 kts | 115° |
| 2026-04-26 14:13 | -4.28024 | -69.89175 | 2364 ft | 114 kts | 160° |
| 2026-04-26 14:14 | -4.28808 | -69.89226 | 2604 ft | 116 kts | 202° |
| 2026-04-26 14:14 | -4.29547 | -69.89594 | 2870 ft | 119 kts | 208° |
| 2026-04-26 14:14 | -4.30282 | -69.89990 | 3149 ft | 119 kts | 208° |
| 2026-04-26 14:14 | -4.31009 | -69.90375 | 3426 ft | 120 kts | 207° |
| 2026-04-26 14:15 | -4.31749 | -69.90769 | 3694 ft | 120 kts | 208° |
| 2026-04-26 14:15 | -4.32494 | -69.91164 | 3965 ft | 121 kts | 208° |
| 2026-04-26 14:15 | -4.33243 | -69.91560 | 4235 ft | 123 kts | 208° |
| 2026-04-26 14:15 | -4.33998 | -69.91963 | 4502 ft | 124 kts | 208° |
| 2026-04-26 14:16 | -4.34771 | -69.92376 | 4780 ft | 125 kts | 208° |
| 2026-04-26 14:16 | -4.35533 | -69.92786 | 5070 ft | 124 kts | 208° |
| 2026-04-26 14:16 | -4.36307 | -69.93198 | 5332 ft | 126 kts | 204° |
| 2026-04-26 14:16 | -4.37125 | -69.93518 | 5573 ft | 128 kts | 199° |
| 2026-04-26 14:17 | -4.38006 | -69.93675 | 5825 ft | 128 kts | 179° |
| 2026-04-26 14:17 | -4.38892 | -69.93651 | 6089 ft | 127 kts | 176° |
| 2026-04-26 14:17 | -4.39788 | -69.93617 | 6338 ft | 128 kts | 176° |
| 2026-04-26 14:17 | -4.40683 | -69.93589 | 6583 ft | 129 kts | 176° |
| 2026-04-26 14:18 | -4.41582 | -69.93596 | 6824 ft | 128 kts | 180° |
| 2026-04-26 14:18 | -4.42478 | -69.93613 | 7062 ft | 128 kts | 178° |
| 2026-04-26 14:18 | -4.43369 | -69.93630 | 7289 ft | 128 kts | 180° |
| 2026-04-26 14:18 | -4.44268 | -69.93641 | 7517 ft | 127 kts | 177° |
| 2026-04-26 14:19 | -4.45152 | -69.93633 | 7722 ft | 128 kts | 178° |
| 2026-04-26 14:19 | -4.46051 | -69.93632 | 7923 ft | 131 kts | 177° |
| 2026-04-26 14:19 | -4.46974 | -69.93630 | 8167 ft | 131 kts | 177° |
| 2026-04-26 14:19 | -4.47879 | -69.93626 | 8401 ft | 131 kts | 176° |
| 2026-04-26 14:20 | -4.48789 | -69.93620 | 8660 ft | 130 kts | 177° |
| 2026-04-26 14:20 | -4.49694 | -69.93617 | 8886 ft | 130 kts | 177° |
| 2026-04-26 14:20 | -4.50605 | -69.93617 | 9122 ft | 129 kts | 177° |
| 2026-04-26 14:20 | -4.51510 | -69.93621 | 9304 ft | 132 kts | 178° |
| 2026-04-26 14:21 | -4.52444 | -69.93624 | 9494 ft | 134 kts | 176° |
| 2026-04-26 14:21 | -4.53377 | -69.93622 | 9698 ft | 134 kts | 177° |
| 2026-04-26 14:21 | -4.54310 | -69.93621 | 9875 ft | 135 kts | 176° |
| 2026-04-26 14:21 | -4.55303 | -69.93628 | 9947 ft | 147 kts | 177° |
| 2026-04-26 14:22 | -4.56368 | -69.93624 | 9966 ft | 160 kts | 177° |
| 2026-04-26 14:22 | -4.57538 | -69.93603 | 9964 ft | 173 kts | 176° |
| 2026-04-26 14:22 | -4.58778 | -69.93572 | 9960 ft | 180 kts | 176° |
| 2026-04-26 14:22 | -4.60039 | -69.93540 | 9959 ft | 183 kts | 176° |
| 2026-04-26 14:23 | -4.61332 | -69.93505 | 9957 ft | 187 kts | 176° |
| 2026-04-26 14:23 | -4.62645 | -69.93469 | 9956 ft | 190 kts | 176° |
| 2026-04-26 14:23 | -4.63988 | -69.93428 | 9952 ft | 192 kts | 176° |
| 2026-04-26 14:23 | -4.65347 | -69.93392 | 9947 ft | 193 kts | 176° |
| 2026-04-26 14:24 | -4.66700 | -69.93354 | 9949 ft | 194 kts | 177° |
| 2026-04-26 14:24 | -4.68044 | -69.93309 | 9950 ft | 195 kts | 175° |
| 2026-04-26 14:24 | -4.69407 | -69.93269 | 9951 ft | 195 kts | 176° |
| 2026-04-26 14:24 | -4.70779 | -69.93230 | 9955 ft | 196 kts | 176° |
| 2026-04-26 14:25 | -4.72152 | -69.93188 | 9955 ft | 196 kts | 176° |
| 2026-04-26 14:25 | -4.73533 | -69.93145 | 9952 ft | 197 kts | 176° |
| 2026-04-26 14:25 | -4.74906 | -69.93102 | 9955 ft | 197 kts | 176° |
| 2026-04-26 14:25 | -4.76287 | -69.93050 | 9958 ft | 197 kts | 176° |
| 2026-04-26 14:26 | -4.77654 | -69.93012 | 9964 ft | 197 kts | 177° |
| 2026-04-26 14:26 | -4.79033 | -69.92969 | 9963 ft | 197 kts | 176° |
| 2026-04-26 14:26 | -4.80418 | -69.92931 | 9971 ft | 197 kts | 176° |
| 2026-04-26 14:26 | -4.81788 | -69.92887 | 9970 ft | 197 kts | 175° |
| 2026-04-26 14:27 | -4.83175 | -69.92844 | 9973 ft | 197 kts | 177° |
| 2026-04-26 14:27 | -4.84552 | -69.92799 | 9977 ft | 197 kts | 176° |
| 2026-04-26 14:27 | -4.85935 | -69.92755 | 9975 ft | 197 kts | 175° |
| 2026-04-26 14:27 | -4.87303 | -69.92716 | 9975 ft | 198 kts | 176° |
| 2026-04-26 14:28 | -4.88701 | -69.92677 | 9973 ft | 198 kts | 177° |
| 2026-04-26 14:28 | -4.90072 | -69.92638 | 9975 ft | 198 kts | 176° |
| 2026-04-26 14:28 | -4.91463 | -69.92598 | 9977 ft | 198 kts | 177° |
| 2026-04-26 14:28 | -4.92850 | -69.92551 | 9976 ft | 198 kts | 176° |
| 2026-04-26 14:29 | -4.94227 | -69.92507 | 9978 ft | 198 kts | 176° |
| 2026-04-26 14:29 | -4.95615 | -69.92458 | 9983 ft | 198 kts | 176° |
| 2026-04-26 14:29 | -4.97010 | -69.92408 | 9980 ft | 199 kts | 176° |
| 2026-04-26 14:29 | -4.98399 | -69.92359 | 9972 ft | 199 kts | 176° |
| 2026-04-26 14:30 | -4.99792 | -69.92311 | 9969 ft | 199 kts | 176° |
| 2026-04-26 14:30 | -5.01184 | -69.92268 | 9964 ft | 199 kts | 176° |
| 2026-04-26 14:30 | -5.02561 | -69.92226 | 9963 ft | 199 kts | 176° |
| 2026-04-26 14:30 | -5.03962 | -69.92177 | 9963 ft | 199 kts | 176° |
| 2026-04-26 14:31 | -5.05352 | -69.92131 | 9960 ft | 198 kts | 177° |
| 2026-04-26 14:31 | -5.06725 | -69.92088 | 9960 ft | 198 kts | 176° |
| 2026-04-26 14:31 | -5.08120 | -69.92049 | 9958 ft | 198 kts | 176° |
| 2026-04-26 14:31 | -5.09500 | -69.92002 | 9960 ft | 197 kts | 176° |
| 2026-04-26 14:32 | -5.10873 | -69.91956 | 9958 ft | 198 kts | 176° |
| 2026-04-26 14:32 | -5.12277 | -69.91915 | 9956 ft | 198 kts | 176° |
| 2026-04-26 14:32 | -5.13643 | -69.91875 | 9960 ft | 197 kts | 176° |
| 2026-04-26 14:32 | -5.15031 | -69.91829 | 9957 ft | 197 kts | 175° |
| 2026-04-26 14:33 | -5.16402 | -69.91786 | 9960 ft | 196 kts | 177° |
| 2026-04-26 14:33 | -5.17760 | -69.91742 | 9959 ft | 196 kts | 176° |
| 2026-04-26 14:33 | -5.19140 | -69.91701 | 9956 ft | 196 kts | 176° |
| 2026-04-26 14:33 | -5.20515 | -69.91659 | 9958 ft | 196 kts | 176° |
| 2026-04-26 14:34 | -5.21876 | -69.91617 | 9960 ft | 196 kts | 176° |
| 2026-04-26 14:34 | -5.23263 | -69.91571 | 9961 ft | 196 kts | 176° |
| 2026-04-26 14:34 | -5.24627 | -69.91527 | 9955 ft | 196 kts | 176° |
| 2026-04-26 14:34 | -5.26003 | -69.91488 | 9959 ft | 196 kts | 176° |
| 2026-04-26 14:35 | -5.27366 | -69.91447 | 9960 ft | 197 kts | 176° |
| 2026-04-26 14:35 | -5.28747 | -69.91399 | 9959 ft | 197 kts | 177° |